createdAt,value
2018-09-03T00:31:36.245Z,22.7
2018-09-03T00:32:25.551Z,22.8
2018-09-03T00:33:16.462Z,22.7
2018-09-03T00:34:05.921Z,22.8
2018-09-03T00:34:55.388Z,22.8
2018-09-03T00:35:46.761Z,22.8
2018-09-03T00:36:36.928Z,22.7
2018-09-03T00:37:26.209Z,22.8
2018-09-03T00:38:15.972Z,22.7
2018-09-03T00:39:05.194Z,22.7
2018-09-03T00:39:56.360Z,22.7
2018-09-03T00:40:46.763Z,22.7
2018-09-03T00:41:36.700Z,22.7
2018-09-03T00:42:26.895Z,22.7
2018-09-03T00:43:16.415Z,22.7
2018-09-03T00:44:05.915Z,22.7
2018-09-03T00:44:56.490Z,22.7
2018-09-03T00:45:47.374Z,22.7
2018-09-03T00:46:36.592Z,22.7
2018-09-03T00:47:27.245Z,22.7
2018-09-03T00:48:17.383Z,22.7
2018-09-03T00:49:06.840Z,22.7
2018-09-03T00:49:57.186Z,22.7
2018-09-03T00:50:47.546Z,22.7
2018-09-03T00:51:37.315Z,22.7
2018-09-03T00:52:27.590Z,22.7
2018-09-03T00:53:17.987Z,22.7
2018-09-03T00:54:06.645Z,22.7
2018-09-03T00:54:57.810Z,22.7
2018-09-03T00:55:47.585Z,22.7
2018-09-03T00:56:37.983Z,22.7
2018-09-03T00:57:27.919Z,22.7
2018-09-03T00:58:30.896Z,22.7
2018-09-03T00:59:06.574Z,22.6
2018-09-03T00:59:57.392Z,22.6
2018-09-03T01:00:46.896Z,22.7
2018-09-03T01:01:37.260Z,22.7
2018-09-03T01:02:26.815Z,22.6
2018-09-03T01:03:17.992Z,22.7
2018-09-03T01:04:07.743Z,22.6
2018-09-03T01:04:58.885Z,22.6
2018-09-03T01:05:48.701Z,22.6
2018-09-03T01:06:38.489Z,22.6
2018-09-03T01:07:29.281Z,22.6
2018-09-03T01:08:18.271Z,22.6
2018-09-03T01:09:08.152Z,22.6
2018-09-03T01:09:57.863Z,22.6
2018-09-03T01:10:49.062Z,22.6
2018-09-03T01:11:39.133Z,22.6
2018-09-03T01:12:29.722Z,22.6
2018-09-03T01:13:18.674Z,22.6
2018-09-03T01:14:08.572Z,22.6
2018-09-03T01:14:59.545Z,22.6
2018-09-03T01:15:49.968Z,22.6
2018-09-03T01:16:39.133Z,22.6
2018-09-03T01:17:29.602Z,22.6
2018-09-03T01:18:19.434Z,22.6
2018-09-03T01:19:09.111Z,22.6
2018-09-03T01:19:58.951Z,22.6
2018-09-03T01:20:49.045Z,22.6
2018-09-03T01:21:39.359Z,22.6
2018-09-03T01:22:29.596Z,22.6
2018-09-03T01:23:20.613Z,22.6
2018-09-03T01:24:09.274Z,22.6
2018-09-03T01:24:59.759Z,22.6
2018-09-03T01:25:49.721Z,22.6
2018-09-03T01:26:39.768Z,22.6
2018-09-03T01:27:29.525Z,22.6
2018-09-03T01:28:19.836Z,22.6
2018-09-03T01:29:10.278Z,22.6
2018-09-03T01:30:04.805Z,22.6
2018-09-03T01:31:05.212Z,22.6
2018-09-03T01:31:55.322Z,22.6
2018-09-03T01:32:30.412Z,22.6
2018-09-03T01:33:35.987Z,22.6
2018-09-03T01:34:10.854Z,22.6
2018-09-03T01:35:01.108Z,22.6
2018-09-03T01:35:50.715Z,22.6
2018-09-03T01:36:41.537Z,22.6
2018-09-03T01:37:30.870Z,22.6
2018-09-03T01:38:20.912Z,22.6
2018-09-03T01:39:24.252Z,22.6
2018-09-03T01:40:01.325Z,22.5
2018-09-03T01:40:51.097Z,22.6
2018-09-03T01:41:55.043Z,22.6
2018-09-03T01:42:32.284Z,22.6
2018-09-03T01:43:21.739Z,22.6
2018-09-03T01:44:11.647Z,22.6
2018-09-03T01:45:01.636Z,22.6
2018-09-03T01:46:06.917Z,22.6
2018-09-03T01:46:42.296Z,22.6
2018-09-03T01:47:47.480Z,22.5
2018-09-03T01:48:21.382Z,22.6
2018-09-03T01:49:11.766Z,22.6
2018-09-03T01:50:00.649Z,22.5
2018-09-03T01:51:07.460Z,22.5
2018-09-03T01:51:42.514Z,22.5
2018-09-03T01:52:48.130Z,22.5
2018-09-03T01:53:36.443Z,22.5
2018-09-03T01:54:12.348Z,22.5
2018-09-03T01:55:01.827Z,22.5
2018-09-03T01:55:52.558Z,22.5
2018-09-03T01:56:56.910Z,22.5
2018-09-03T01:57:32.056Z,22.5
2018-09-03T01:58:22.138Z,22.5
2018-09-03T01:59:12.718Z,22.5
2018-09-03T02:00:02.720Z,22.5
2018-09-03T02:00:53.090Z,22.5
2018-09-03T02:01:43.238Z,22.5
2018-09-03T02:02:32.953Z,22.5
2018-09-03T02:03:22.901Z,22.5
2018-09-03T02:04:12.380Z,22.5
2018-09-03T02:05:03.209Z,22.5
2018-09-03T02:05:53.107Z,22.5
2018-09-03T02:06:44.286Z,22.5
2018-09-03T02:07:33.710Z,22.4
2018-09-03T02:08:38.600Z,22.5
2018-09-03T02:09:27.682Z,22.5
2018-09-03T02:10:02.923Z,22.4
2018-09-03T02:10:53.910Z,22.5
2018-09-03T02:11:43.240Z,22.5
2018-09-03T02:12:33.315Z,22.4
2018-09-03T02:13:22.949Z,22.5
2018-09-03T02:14:14.529Z,22.5
2018-09-03T02:15:04.082Z,22.4
2018-09-03T02:15:54.090Z,22.4
2018-09-03T02:16:58.504Z,22.4
2018-09-03T02:17:34.018Z,22.4
2018-09-03T02:18:24.560Z,22.4
2018-09-03T02:19:14.113Z,22.4
2018-09-03T02:20:04.197Z,22.4
2018-09-03T02:21:09.164Z,22.4
2018-09-03T02:21:44.224Z,22.4
2018-09-03T02:22:32.297Z,22.4
2018-09-03T02:23:24.009Z,22.4
2018-09-03T02:24:28.664Z,22.4
2018-09-03T02:25:05.766Z,22.4
2018-09-03T02:25:53.977Z,22.4
2018-09-03T02:26:44.721Z,22.4
2018-09-03T02:27:35.187Z,22.4
2018-09-03T02:28:40.609Z,22.4
2018-09-03T02:29:15.805Z,22.4
2018-09-03T02:30:19.221Z,22.4
2018-09-03T02:30:54.714Z,22.4
2018-09-03T02:31:59.971Z,22.4
2018-09-03T02:32:34.596Z,22.4
2018-09-03T02:33:23.835Z,22.4
2018-09-03T02:34:14.992Z,22.4
2018-09-03T02:35:19.958Z,22.4
2018-09-03T02:35:55.536Z,22.4
2018-09-03T02:36:45.990Z,22.4
2018-09-03T02:37:35.443Z,22.4
2018-09-03T02:38:25.733Z,22.4
2018-09-03T02:39:16.405Z,22.4
2018-09-03T02:40:19.728Z,22.4
2018-09-03T02:40:55.863Z,22.4
2018-09-03T02:42:15.431Z,22.4
2018-09-03T02:42:35.350Z,22.4
2018-09-03T02:43:26.486Z,22.4
2018-09-03T02:44:16.688Z,22.4
2018-09-03T02:45:06.459Z,22.4
2018-09-03T02:45:56.431Z,22.4
2018-09-03T02:46:46.612Z,22.4
2018-09-03T02:47:37.292Z,22.4
2018-09-03T02:49:31.687Z,22.4
2018-09-03T02:50:07.673Z,22.4
2018-09-03T02:50:55.380Z,22.4
2018-09-03T02:51:46.563Z,22.4
2018-09-03T02:52:37.744Z,22.4
2018-09-03T02:53:40.857Z,22.4
2018-09-03T02:54:17.015Z,22.4
2018-09-03T02:55:20.444Z,22.4
2018-09-03T02:56:11.969Z,22.4
2018-09-03T02:56:46.937Z,22.4
2018-09-03T02:57:37.944Z,22.4
2018-09-03T02:58:27.499Z,22.4
2018-09-03T02:59:17.107Z,22.4
2018-09-03T03:00:07.490Z,22.4
2018-09-03T03:00:58.321Z,22.4
2018-09-03T03:01:47.113Z,22.4
2018-09-03T03:02:39.516Z,22.4
2018-09-03T03:03:27.366Z,22.4
2018-09-03T03:04:17.222Z,22.4
2018-09-03T03:05:08.292Z,22.4
2018-09-03T03:06:12.637Z,22.4
2018-09-03T03:06:47.877Z,22.3
2018-09-03T03:07:38.552Z,22.4
2018-09-03T03:08:42.615Z,22.3
2018-09-03T03:09:48.053Z,22.3
2018-09-03T03:10:07.834Z,22.3
2018-09-03T03:10:56.963Z,22.4
2018-09-03T03:12:04.017Z,22.4
2018-09-03T03:12:37.708Z,22.3
2018-09-03T03:13:29.495Z,22.3
2018-09-03T03:14:19.029Z,22.3
2018-09-03T03:15:09.309Z,22.3
2018-09-03T03:15:57.927Z,22.3
2018-09-03T03:16:48.316Z,22.3
2018-09-03T03:17:37.721Z,22.3
2018-09-03T03:18:29.189Z,22.3
2018-09-03T03:19:19.261Z,22.3
2018-09-03T03:20:09.085Z,22.3
2018-09-03T03:20:59.207Z,22.3
2018-09-03T03:21:48.125Z,22.3
2018-09-03T03:22:38.627Z,22.3
2018-09-03T03:23:29.155Z,22.3
2018-09-03T03:24:18.574Z,22.3
2018-09-03T03:25:25.042Z,22.3
2018-09-03T03:25:59.281Z,22.3
2018-09-03T03:26:49.038Z,22.3
2018-09-03T03:27:39.698Z,22.3
2018-09-03T03:28:28.578Z,22.3
2018-09-03T03:29:19.498Z,22.3
2018-09-03T03:30:09.077Z,22.3
2018-09-03T03:30:58.530Z,22.3
2018-09-03T03:31:49.743Z,22.3
2018-09-03T03:32:39.399Z,22.3
2018-09-03T03:33:30.465Z,22.3
2018-09-03T03:34:19.922Z,22.3
2018-09-03T03:35:10.250Z,22.3
2018-09-03T03:36:00.563Z,22.3
2018-09-03T03:36:49.792Z,22.3
2018-09-03T03:37:40.147Z,22.3
2018-09-03T03:38:30.479Z,22.3
2018-09-03T03:39:20.841Z,22.3
2018-09-03T03:40:08.990Z,22.3
2018-09-03T03:41:00.879Z,22.3
2018-09-03T03:41:50.776Z,22.3
2018-09-03T03:42:39.741Z,22.3
2018-09-03T03:43:30.613Z,22.3
2018-09-03T03:44:20.676Z,22.3
2018-09-03T03:45:11.017Z,22.3
2018-09-03T03:46:00.514Z,22.3
2018-09-03T03:46:50.543Z,22.3
2018-09-03T03:47:40.919Z,22.3
2018-09-03T03:48:31.032Z,22.3
2018-09-03T03:49:21.026Z,22.3
2018-09-03T03:50:11.125Z,22.3
2018-09-03T03:51:01.722Z,22.3
2018-09-03T03:51:51.001Z,22.3
2018-09-03T03:52:41.036Z,22.3
2018-09-03T03:53:30.826Z,22.3
2018-09-03T03:54:21.466Z,22.3
2018-09-03T03:55:13.100Z,22.3
2018-09-03T03:56:01.911Z,22.3
2018-09-03T03:56:51.046Z,22.3
2018-09-03T03:57:41.953Z,22.3
2018-09-03T03:58:33.020Z,22.3
2018-09-03T03:59:23.234Z,22.3
2018-09-03T04:00:13.079Z,22.3
2018-09-03T04:01:02.988Z,22.3
2018-09-03T04:01:53.758Z,22.3
2018-09-03T04:02:43.184Z,22.3
2018-09-03T04:03:34.012Z,22.3
2018-09-03T04:04:24.381Z,22.3
2018-09-03T04:05:12.751Z,22.2
2018-09-03T04:06:02.538Z,22.3
2018-09-03T04:06:52.752Z,22.3
2018-09-03T04:07:42.572Z,22.3
2018-09-03T04:08:31.490Z,22.3
2018-09-03T04:09:22.213Z,22.2
2018-09-03T04:10:12.145Z,22.2
2018-09-03T04:11:02.159Z,22.3
2018-09-03T04:11:52.300Z,22.2
2018-09-03T04:12:43.370Z,22.2
2018-09-03T04:13:33.202Z,22.2
2018-09-03T04:14:22.795Z,22.2
2018-09-03T04:15:12.779Z,22.3
2018-09-03T04:16:03.462Z,22.2
2018-09-03T04:16:53.985Z,22.2
2018-09-03T04:17:42.994Z,22.2
2018-09-03T04:18:33.820Z,22.2
2018-09-03T04:19:23.464Z,22.2
2018-09-03T04:20:13.515Z,22.2
2018-09-03T04:21:03.804Z,22.2
2018-09-03T04:21:53.039Z,22.2
2018-09-03T04:22:43.179Z,22.3
2018-09-03T04:23:35.877Z,22.2
2018-09-03T04:24:23.559Z,22.2
2018-09-03T04:25:13.723Z,22.2
2018-09-03T04:26:04.484Z,22.2
2018-09-03T04:26:53.122Z,22.2
2018-09-03T04:27:43.854Z,22.2
2018-09-03T04:28:34.621Z,22.2
2018-09-03T04:29:23.958Z,22.2
2018-09-03T04:30:13.760Z,22.2
2018-09-03T04:31:04.939Z,22.2
2018-09-03T04:31:54.546Z,22.2
2018-09-03T04:32:44.621Z,22.2
2018-09-03T04:33:36.342Z,22.2
2018-09-03T04:34:25.992Z,22.2
2018-09-03T04:35:14.929Z,22.2
2018-09-03T04:36:04.973Z,22.2
2018-09-03T04:36:55.304Z,22.2
2018-09-03T04:37:44.641Z,22.2
2018-09-03T04:38:36.141Z,22.2
2018-09-03T04:39:25.002Z,22.2
2018-09-03T04:40:14.198Z,22.2
2018-09-03T04:41:05.641Z,22.2
2018-09-03T04:41:54.693Z,22.2
2018-09-03T04:42:45.726Z,22.2
2018-09-03T05:00:23.769Z,22.1
2018-09-03T05:01:13.716Z,22.2
2018-09-03T05:02:02.728Z,22.1
2018-09-03T05:02:53.675Z,22.1
2018-09-03T05:03:42.890Z,22.2
2018-09-03T05:04:33.702Z,22.2
2018-09-03T05:05:24.735Z,22.1
2018-09-03T05:06:14.520Z,22.1
2018-09-03T05:07:02.724Z,22.2
2018-09-03T05:07:53.924Z,22.1
2018-09-03T05:08:43.457Z,22.2
2018-09-03T05:09:33.505Z,22.2
2018-09-03T05:10:24.923Z,22.2
2018-09-03T05:11:13.907Z,22.1
2018-09-03T05:12:04.538Z,22.1
2018-09-03T05:12:53.459Z,22.2
2018-09-03T05:13:43.889Z,22.2
2018-09-03T05:14:33.572Z,22.1
2018-09-03T05:15:24.956Z,22.1
2018-09-03T05:16:13.294Z,22.1
2018-09-03T05:17:04.349Z,22.1
2018-09-03T05:17:54.446Z,22.1
2018-09-03T05:18:44.727Z,22.1
2018-09-03T05:19:35.057Z,22.1
2018-09-03T05:20:24.075Z,22.1
2018-09-03T05:21:14.162Z,22.1
2018-09-03T05:22:04.732Z,22.1
2018-09-03T05:22:54.767Z,22.1
2018-09-03T05:23:45.240Z,22.1
2018-09-03T05:24:35.011Z,22.1
2018-09-03T05:25:25.251Z,22.1
2018-09-03T05:26:15.488Z,22.1
2018-09-03T05:27:05.424Z,22.1
2018-09-03T05:27:54.791Z,22.1
2018-09-03T05:28:44.474Z,22.1
2018-09-03T05:29:35.861Z,22.1
2018-09-03T05:30:24.806Z,22.1
2018-09-03T05:31:17.516Z,22.1
2018-09-03T05:32:05.465Z,22.1
2018-09-03T05:32:55.571Z,22.1
2018-09-03T05:33:45.644Z,22.1
2018-09-03T05:34:35.395Z,22.1
2018-09-03T05:35:26.137Z,22.1
2018-09-03T05:36:15.600Z,22.1
2018-09-03T05:37:05.720Z,22.1
2018-09-03T05:37:55.977Z,22.1
2018-09-03T05:38:45.766Z,22.1
2018-09-03T05:39:35.880Z,22.1
2018-09-03T05:40:26.903Z,22.1
2018-09-03T05:41:17.597Z,22.1
2018-09-03T05:42:07.211Z,22.1
2018-09-03T05:42:57.511Z,22.1
2018-09-03T05:43:49.163Z,22.1
2018-09-03T05:44:36.177Z,22.1
2018-09-03T05:45:27.705Z,22.1
2018-09-03T05:46:17.742Z,22.1
2018-09-03T05:47:06.760Z,22.1
2018-09-03T05:47:56.508Z,22.1
2018-09-03T05:48:47.417Z,22.1
2018-09-03T05:49:37.370Z,22.1
2018-09-03T05:50:30.416Z,22.1
2018-09-03T05:51:17.704Z,22.1
2018-09-03T05:52:06.853Z,22.1
2018-09-03T05:52:57.209Z,22.1
2018-09-03T05:53:47.794Z,22.1
2018-09-03T05:54:37.821Z,22.1
2018-09-03T05:55:27.833Z,22.1
2018-09-03T05:56:17.815Z,22.1
2018-09-03T05:57:07.769Z,22.1
2018-09-03T05:57:56.971Z,22.1
2018-09-03T05:58:47.643Z,22.1
2018-09-03T05:59:37.777Z,22.1
2018-09-03T06:00:27.602Z,22.1
2018-09-03T06:01:18.560Z,22.1
2018-09-03T06:02:08.162Z,22.1
2018-09-03T06:02:58.012Z,22.1
2018-09-03T06:03:47.799Z,22.1
2018-09-03T06:04:38.640Z,22.1
2018-09-03T06:05:27.250Z,22.1
2018-09-03T06:06:18.507Z,22.1
2018-09-03T06:07:08.489Z,22.1
2018-09-03T06:07:58.831Z,22.1
2018-09-03T06:08:48.134Z,22.1
2018-09-03T06:09:38.127Z,22.1
2018-09-03T06:10:29.667Z,22.1
2018-09-03T06:11:20.031Z,22.1
2018-09-03T06:12:08.964Z,22.1
2018-09-03T06:12:58.381Z,22.1
2018-09-03T06:13:48.137Z,22.1
2018-09-03T06:14:38.809Z,22.1
2018-09-03T06:15:28.886Z,22.1
2018-09-03T06:16:19.448Z,22.1
2018-09-03T06:17:09.594Z,22.1
2018-09-03T06:18:00.418Z,22.1
2018-09-03T06:18:49.760Z,22.1
2018-09-03T06:19:39.246Z,22.1
2018-09-03T06:20:29.803Z,22.1
2018-09-03T06:21:20.659Z,22.1
2018-09-03T06:22:09.975Z,22.1
2018-09-03T06:22:59.854Z,22.1
2018-09-03T06:23:49.857Z,22.1
2018-09-03T06:24:40.303Z,22.1
2018-09-03T06:25:29.701Z,22.1
2018-09-03T06:26:20.625Z,22.1
2018-09-03T06:27:10.765Z,22.1
2018-09-03T06:27:59.610Z,22.1
2018-09-03T06:28:50.280Z,22.1
2018-09-03T06:29:40.341Z,22.1
2018-09-03T06:30:30.411Z,22.1
2018-09-03T06:31:20.890Z,22.1
2018-09-03T06:32:09.648Z,22.1
2018-09-03T06:33:01.351Z,22.1
2018-09-03T06:33:49.740Z,22.1
2018-09-03T06:34:40.155Z,22.1
2018-09-03T06:35:31.019Z,22.1
2018-09-03T06:36:21.029Z,22.1
2018-09-03T06:37:10.968Z,22.1
2018-09-03T06:38:01.263Z,22.2
2018-09-03T06:38:50.207Z,22.1
2018-09-03T06:39:39.667Z,22.1
2018-09-03T06:40:30.162Z,22.1
2018-09-03T06:41:20.719Z,22.2
2018-09-03T06:42:12.017Z,22.1
2018-09-03T06:43:00.676Z,22.1
2018-09-03T06:43:50.217Z,22.1
2018-09-03T06:44:41.130Z,22.2
2018-09-03T06:45:31.172Z,22.1
2018-09-03T06:46:21.251Z,22.2
2018-09-03T06:47:11.371Z,22.1
2018-09-03T06:48:01.400Z,22.2
2018-09-03T06:48:51.797Z,22.1
2018-09-03T06:49:41.736Z,22.2
2018-09-03T06:50:32.210Z,22.2
2018-09-03T06:51:22.213Z,22.2
2018-09-03T06:52:12.744Z,22.2
2018-09-03T06:53:01.222Z,22.2
2018-09-03T06:53:52.327Z,22.2
2018-09-03T06:54:42.412Z,22.2
2018-09-03T06:55:31.887Z,22.1
2018-09-03T06:56:21.945Z,22.2
2018-09-03T06:57:13.347Z,22.2
2018-09-03T06:58:02.372Z,22.2
2018-09-03T06:58:52.437Z,22.2
2018-09-03T06:59:43.890Z,22.2
2018-09-03T07:00:32.574Z,22.2
2018-09-03T07:01:22.969Z,22.2
2018-09-03T07:02:12.846Z,22.2
2018-09-03T07:03:03.052Z,22.2
2018-09-03T07:03:53.085Z,22.2
2018-09-03T07:04:42.970Z,22.2
2018-09-03T07:05:32.111Z,22.2
2018-09-03T07:06:23.038Z,22.2
2018-09-03T07:07:13.632Z,22.2
2018-09-03T07:08:02.483Z,22.2
2018-09-03T07:08:53.483Z,22.2
2018-09-03T07:09:43.247Z,22.2
2018-09-03T07:10:33.310Z,22.2
2018-09-03T07:11:23.117Z,22.2
2018-09-03T07:12:13.152Z,22.2
2018-09-03T07:13:03.585Z,22.2
2018-09-03T07:13:53.668Z,22.2
2018-09-03T07:14:42.887Z,22.2
2018-09-03T07:15:33.258Z,22.2
2018-09-03T07:16:22.716Z,22.2
2018-09-03T07:17:12.862Z,22.2
2018-09-03T07:18:03.353Z,22.2
2018-09-03T07:18:55.125Z,22.2
2018-09-03T07:19:44.019Z,22.2
2018-09-03T07:20:33.584Z,22.2
2018-09-03T07:21:23.952Z,22.2
2018-09-03T07:22:13.899Z,22.2
2018-09-03T07:23:04.329Z,22.2
2018-09-03T07:23:54.077Z,22.2
2018-09-03T07:24:44.438Z,22.3
2018-09-03T07:25:34.219Z,22.2
2018-09-03T07:26:23.701Z,22.3
2018-09-03T07:27:14.899Z,22.2
2018-09-03T07:28:04.664Z,22.3
2018-09-03T07:28:56.033Z,22.2
2018-09-03T07:29:44.831Z,22.3
2018-09-03T07:30:34.340Z,22.3
2018-09-03T07:31:24.381Z,22.2
2018-09-03T07:32:14.704Z,22.3
2018-09-03T07:33:05.347Z,22.3
2018-09-03T07:33:54.756Z,22.3
2018-09-03T07:34:45.206Z,22.3
2018-09-03T07:35:35.628Z,22.3
2018-09-03T07:36:24.833Z,22.3
2018-09-03T07:37:15.375Z,22.3
2018-09-03T07:38:06.241Z,22.3
2018-09-03T07:38:55.708Z,22.3
2018-09-03T07:39:45.314Z,22.3
2018-09-03T07:40:34.803Z,22.3
2018-09-03T07:41:24.886Z,22.3
2018-09-03T07:42:15.566Z,22.3
2018-09-03T07:43:05.979Z,22.3
2018-09-03T07:43:56.865Z,22.3
2018-09-03T07:44:45.983Z,22.3
2018-09-03T07:45:35.460Z,22.3
2018-09-03T07:46:25.585Z,22.3
2018-09-03T07:47:16.210Z,22.3
2018-09-03T07:48:06.200Z,22.3
2018-09-03T07:48:56.248Z,22.3
2018-09-03T07:49:46.142Z,22.3
2018-09-03T07:50:36.702Z,22.3
2018-09-03T07:51:26.635Z,22.3
2018-09-03T07:52:16.176Z,22.3
2018-09-03T07:53:06.657Z,22.3
2018-09-03T07:53:56.638Z,22.3
2018-09-03T07:54:46.025Z,22.3
2018-09-03T07:55:36.651Z,22.3
2018-09-03T07:56:26.939Z,22.3
2018-09-03T07:57:16.619Z,22.3
2018-09-03T07:58:06.716Z,22.3
2018-09-03T07:58:57.349Z,22.3
2018-09-03T07:59:46.942Z,22.3
2018-09-03T08:00:36.311Z,22.3
2018-09-03T08:01:27.941Z,22.3
2018-09-03T08:02:16.617Z,22.3
2018-09-03T08:03:07.209Z,22.3
2018-09-03T08:03:56.936Z,22.3
2018-09-03T08:04:47.574Z,22.3
2018-09-03T08:05:36.824Z,22.3
2018-09-03T08:06:27.529Z,22.3
2018-09-03T08:07:18.208Z,22.3
2018-09-03T08:08:08.297Z,22.3
2018-09-03T08:08:58.455Z,22.3
2018-09-03T08:09:47.345Z,22.3
2018-09-03T08:10:37.712Z,22.3
2018-09-03T08:11:28.114Z,22.3
2018-09-03T08:12:18.136Z,22.3
2018-09-03T08:13:09.198Z,22.3
2018-09-03T08:13:58.085Z,22.3
2018-09-03T08:14:48.800Z,22.3
2018-09-03T08:15:38.504Z,22.3
2018-09-03T08:16:28.181Z,22.3
2018-09-03T08:17:18.105Z,22.3
2018-09-03T08:18:07.768Z,22.3
2018-09-03T08:18:58.604Z,22.3
2018-09-03T08:19:48.361Z,22.3
2018-09-03T08:20:38.069Z,22.3
2018-09-03T08:21:28.921Z,22.3
2018-09-03T08:22:18.348Z,22.3
2018-09-03T08:23:08.386Z,22.3
2018-09-03T08:23:59.291Z,22.3
2018-09-03T08:24:49.563Z,22.3
2018-09-03T08:25:39.378Z,22.3
2018-09-03T08:26:28.643Z,22.4
2018-09-03T08:27:18.520Z,22.3
2018-09-03T08:28:09.359Z,22.3
2018-09-03T08:28:59.161Z,22.4
2018-09-03T08:29:49.778Z,22.4
2018-09-03T08:30:39.496Z,22.4
2018-09-03T08:31:28.553Z,22.3
2018-09-03T08:32:19.106Z,22.4
2018-09-03T08:33:09.453Z,22.4
2018-09-03T08:33:59.235Z,22.4
2018-09-03T08:34:50.636Z,22.4
2018-09-03T08:35:40.889Z,22.4
2018-09-03T08:36:30.026Z,22.4
2018-09-03T08:37:19.508Z,22.4
2018-09-03T08:38:10.403Z,22.4
2018-09-03T08:38:59.638Z,22.4
2018-09-03T08:39:50.794Z,22.4
2018-09-03T08:40:39.725Z,22.4
2018-09-03T08:41:30.107Z,22.4
2018-09-03T08:42:19.880Z,22.4
2018-09-03T08:43:09.945Z,22.4
2018-09-03T08:44:00.008Z,22.4
2018-09-03T08:44:52.286Z,22.4
2018-09-03T08:45:41.703Z,22.4
2018-09-03T08:46:31.060Z,22.4
2018-09-03T08:47:20.395Z,22.4
2018-09-03T08:48:41.260Z,22.4
2018-09-03T08:49:01.212Z,22.4
2018-09-03T08:49:51.112Z,22.4
2018-09-03T08:50:41.919Z,22.4
2018-09-03T08:51:31.077Z,22.4
2018-09-03T08:52:21.129Z,22.4
2018-09-03T08:53:11.022Z,22.4
2018-09-03T08:54:01.084Z,22.4
2018-09-03T08:54:51.449Z,22.4
2018-09-03T08:55:41.724Z,22.4
2018-09-03T08:56:30.703Z,22.4
2018-09-03T08:57:21.940Z,22.4
2018-09-03T08:58:12.023Z,22.4
2018-09-03T09:14:53.214Z,22.4
2018-09-03T09:15:42.787Z,22.4
2018-09-03T09:16:33.094Z,22.4
2018-09-03T09:17:23.179Z,22.4
2018-09-03T09:18:14.132Z,22.4
2018-09-03T09:19:03.366Z,22.4
2018-09-03T09:19:54.469Z,22.4
2018-09-03T09:20:43.994Z,22.4
2018-09-03T09:21:33.771Z,22.4
2018-09-03T09:22:23.911Z,22.4
2018-09-03T09:23:13.635Z,22.4
2018-09-03T09:24:03.653Z,22.4
2018-09-03T09:24:54.605Z,22.4
2018-09-03T09:25:43.899Z,22.4
2018-09-03T09:26:33.886Z,22.4
2018-09-03T09:27:23.979Z,22.4
2018-09-03T09:28:14.083Z,22.4
2018-09-03T09:29:03.861Z,22.4
2018-09-03T09:29:54.408Z,22.4
2018-09-03T09:30:44.183Z,22.4
2018-09-03T09:31:34.631Z,22.4
2018-09-03T09:32:23.745Z,22.4
2018-09-03T09:33:15.027Z,22.4
2018-09-03T09:34:03.895Z,22.4
2018-09-03T09:34:55.403Z,22.4
2018-09-03T09:35:44.085Z,22.4
2018-09-03T09:36:34.389Z,22.4
2018-09-03T09:37:25.340Z,22.4
2018-09-03T09:38:14.533Z,22.4
2018-09-03T09:39:05.168Z,22.4
2018-09-03T09:39:56.507Z,22.4
2018-09-03T09:40:45.535Z,22.4
2018-09-03T09:41:35.802Z,22.4
2018-09-03T09:42:25.467Z,22.4
2018-09-03T09:43:16.587Z,22.4
2018-09-03T09:44:04.879Z,22.4
2018-09-03T09:44:55.570Z,22.4
2018-09-03T09:45:45.945Z,22.4
2018-09-03T09:46:36.028Z,22.4
2018-09-03T09:47:26.810Z,22.4
2018-09-03T09:48:15.604Z,22.4
2018-09-03T09:49:06.770Z,22.4
2018-09-03T09:49:56.787Z,22.4
2018-09-03T09:50:46.689Z,22.5
2018-09-03T09:51:36.145Z,22.5
2018-09-03T09:52:25.346Z,22.4
2018-09-03T09:53:16.221Z,22.5
2018-09-03T09:54:06.344Z,22.4
2018-09-03T09:54:58.502Z,22.4
2018-09-03T09:55:46.929Z,22.5
2018-09-03T09:56:36.052Z,22.4
2018-09-03T09:57:26.879Z,22.4
2018-09-03T09:58:16.942Z,22.5
2018-09-03T09:59:06.420Z,22.4
2018-09-03T09:59:57.036Z,22.5
2018-09-03T10:00:45.921Z,22.5
2018-09-03T10:01:36.585Z,22.4
2018-09-03T10:02:26.669Z,22.4
2018-09-03T10:03:16.970Z,22.5
2018-09-03T10:04:07.376Z,22.5
2018-09-03T10:04:56.913Z,22.5
2018-09-03T10:05:46.741Z,22.4
2018-09-03T10:06:37.142Z,22.5
2018-09-03T10:07:26.767Z,22.5
2018-09-03T10:08:17.432Z,22.5
2018-09-03T10:09:07.512Z,22.4
2018-09-03T10:09:56.695Z,22.5
2018-09-03T10:10:48.030Z,22.5
2018-09-03T10:11:37.637Z,22.4
2018-09-03T10:12:27.707Z,22.4
2018-09-03T10:13:17.817Z,22.5
2018-09-03T10:14:07.578Z,22.5
2018-09-03T10:14:57.718Z,22.5
2018-09-03T10:15:47.729Z,22.4
2018-09-03T10:16:38.194Z,22.5
2018-09-03T10:17:27.564Z,22.4
2018-09-03T10:18:18.785Z,22.4
2018-09-03T10:19:07.677Z,22.4
2018-09-03T10:19:58.892Z,22.4
2018-09-03T10:20:48.487Z,22.5
2018-09-03T10:21:38.198Z,22.5
2018-09-03T10:22:27.499Z,22.4
2018-09-03T10:23:17.984Z,22.5
2018-09-03T10:24:08.996Z,22.5
2018-09-03T10:24:58.229Z,22.5
2018-09-03T10:25:47.679Z,22.5
2018-09-03T10:26:39.074Z,22.4
2018-09-03T10:27:28.081Z,22.4
2018-09-03T10:28:18.659Z,22.5
2018-09-03T10:29:09.016Z,22.5
2018-09-03T10:29:58.884Z,22.5
2018-09-03T10:30:48.964Z,22.4
2018-09-03T10:31:39.216Z,22.5
2018-09-03T10:32:29.674Z,22.5
2018-09-03T10:33:18.802Z,22.5
2018-09-03T10:34:09.421Z,22.5
2018-09-03T10:34:58.946Z,22.5
2018-09-03T10:35:49.626Z,22.5
2018-09-03T10:36:39.674Z,22.4
2018-09-03T10:37:30.039Z,22.5
2018-09-03T10:38:19.709Z,22.5
2018-09-03T10:39:09.346Z,22.5
2018-09-03T10:40:00.171Z,22.5
2018-09-03T10:40:49.406Z,22.5
2018-09-03T10:41:39.809Z,22.5
2018-09-03T10:42:30.347Z,22.5
2018-09-03T10:43:19.608Z,22.5
2018-09-03T10:44:09.724Z,22.5
2018-09-03T10:45:00.268Z,22.5
2018-09-03T10:45:50.713Z,22.5
2018-09-03T10:46:41.048Z,22.5
2018-09-03T10:47:32.353Z,22.5
2018-09-03T10:48:20.617Z,22.5
2018-09-03T10:49:10.607Z,22.5
2018-09-03T10:50:00.128Z,22.5
2018-09-03T10:50:50.735Z,22.5
2018-09-03T10:51:40.598Z,22.5
2018-09-03T10:52:30.095Z,22.5
2018-09-03T10:53:20.173Z,22.5
2018-09-03T10:54:11.354Z,22.5
2018-09-03T10:55:00.813Z,22.5
2018-09-03T10:55:49.968Z,22.5
2018-09-03T10:56:41.502Z,22.5
2018-09-03T10:57:31.816Z,22.5
2018-09-03T10:58:21.888Z,22.5
2018-09-03T10:59:11.403Z,22.5
2018-09-03T11:00:01.481Z,22.5
2018-09-03T11:00:51.790Z,22.5
2018-09-03T11:01:41.573Z,22.5
2018-09-03T11:02:31.919Z,22.5
2018-09-03T11:03:20.612Z,22.5
2018-09-03T11:04:11.434Z,22.5
2018-09-03T11:05:01.588Z,22.5
2018-09-03T11:05:51.628Z,22.5
2018-09-03T11:06:41.477Z,22.5
2018-09-03T11:07:31.872Z,22.5
2018-09-03T11:08:21.530Z,22.5
2018-09-03T11:09:12.275Z,22.5
2018-09-03T11:10:02.545Z,22.5
2018-09-03T11:10:51.441Z,22.5
2018-09-03T11:11:42.430Z,22.5
2018-09-03T11:12:32.534Z,22.5
2018-09-03T11:13:22.597Z,22.5
2018-09-03T11:14:14.094Z,22.5
2018-09-03T11:15:02.964Z,22.5
2018-09-03T11:15:53.284Z,22.5
2018-09-03T11:16:43.286Z,22.5
2018-09-03T11:17:33.530Z,22.5
2018-09-03T11:18:22.372Z,22.5
2018-09-03T11:19:12.986Z,22.5
2018-09-03T11:20:05.245Z,22.5
2018-09-03T11:20:53.090Z,22.5
2018-09-03T11:21:46.104Z,22.5
2018-09-03T11:22:34.451Z,22.5
2018-09-03T11:23:23.010Z,22.5
2018-09-03T11:24:13.144Z,22.5
2018-09-03T11:25:03.711Z,22.5
2018-09-03T11:25:53.477Z,22.5
2018-09-03T11:26:43.511Z,22.5
2018-09-03T11:27:33.789Z,22.5
2018-09-03T11:28:23.386Z,22.5
2018-09-03T11:29:14.012Z,22.5
2018-09-03T11:30:03.241Z,22.5
2018-09-03T11:30:54.169Z,22.5
2018-09-03T11:31:42.778Z,22.5
2018-09-03T11:32:34.006Z,22.5
2018-09-03T11:33:23.724Z,22.5
2018-09-03T11:34:13.901Z,22.5
2018-09-03T11:35:05.313Z,22.5
2018-09-03T11:35:53.688Z,22.5
2018-09-03T11:36:44.321Z,22.5
2018-09-03T11:37:33.560Z,22.5
2018-09-03T11:38:25.014Z,22.5
2018-09-03T11:39:14.209Z,22.5
2018-09-03T11:40:03.723Z,22.5
2018-09-03T11:40:54.593Z,22.5
2018-09-03T11:41:44.141Z,22.5
2018-09-03T11:42:35.418Z,22.5
2018-09-03T11:43:25.271Z,22.5
2018-09-03T11:44:14.698Z,22.5
2018-09-03T11:45:04.996Z,22.5
2018-09-03T11:45:55.048Z,22.5
2018-09-03T11:46:45.374Z,22.5
2018-09-03T11:47:35.424Z,22.5
2018-09-03T11:48:25.596Z,22.5
2018-09-03T11:49:14.785Z,22.5
2018-09-03T11:50:05.955Z,22.5
2018-09-03T11:50:55.270Z,22.5
2018-09-03T11:51:44.133Z,22.5
2018-09-03T11:52:35.283Z,22.5
2018-09-03T11:53:25.364Z,22.5
2018-09-03T11:54:15.240Z,22.5
2018-09-03T11:55:04.618Z,22.5
2018-09-03T11:55:55.940Z,22.5
2018-09-03T11:56:45.678Z,22.5
2018-09-03T11:57:36.545Z,22.5
2018-09-03T11:58:26.119Z,22.5
2018-09-03T11:59:15.333Z,22.5
2018-09-03T12:00:06.468Z,22.5
2018-09-03T12:00:56.198Z,22.5
2018-09-03T12:01:46.082Z,22.5
2018-09-03T12:02:36.372Z,22.5
2018-09-03T12:03:26.431Z,22.5
2018-09-03T12:04:16.775Z,22.6
2018-09-03T12:05:06.532Z,22.5
2018-09-03T12:05:56.443Z,22.5
2018-09-03T12:06:47.952Z,22.6
2018-09-03T12:07:37.305Z,22.5
2018-09-03T12:08:26.553Z,22.6
2018-09-03T12:09:15.760Z,22.6
2018-09-03T12:10:07.039Z,22.5
2018-09-03T12:10:57.564Z,22.6